Time;durP1;ratioP1;P1;durP2;ratioP2;P2;SDS_P1;SDS_P2;PMS_P1;PMS_P2;Temp;Humidity;BMP_temperature;BMP_pressure;BME280_temperature;BME280_humidity;BME280_pressure;Samples;Min_cycle;Max_cycle;Signal;HPM_P1;HPM_P2
2021/10/19 00:03:05;;;;;;;3.7;2.5;;;;;;;6.68;89.46387;947.0112;;;;
2021/10/19 00:05:30;;;;;;;3.2;2.3;;;;;;;6.63;89.31738;947.0377;;;;
2021/10/19 00:07:55;;;;;;;3.8;2.6;;;;;;;6.77;88.88184;947.0555;;;;
2021/10/19 00:10:20;;;;;;;3.4;2.5;;;;;;;6.8;88.50195;947.0613;;;;
2021/10/19 00:12:45;;;;;;;3.7;2.5;;;;;;;6.82;88.37207;947.0697;;;;
2021/10/19 00:15:11;;;;;;;2.6;2.4;;;;;;;6.83;87.92285;947.135;;;;
2021/10/19 00:17:35;;;;;;;4.3;2.6;;;;;;;6.82;87.61133;947.1423;;;;
2021/10/19 00:20:00;;;;;;;3.2;2.2;;;;;;;6.78;87.50195;947.1175;;;;
2021/10/19 00:22:25;;;;;;;4.6;2.7;;;;;;;6.72;87.64941;947.0957;;;;
2021/10/19 00:24:50;;;;;;;3.5;2.6;;;;;;;6.71;87.50098;947.168;;;;
2021/10/19 00:27:15;;;;;;;3.6;2.6;;;;;;;6.59;87.92773;947.0419;;;;
2021/10/19 00:29:41;;;;;;;3.6;2.4;;;;;;;6.61;87.86523;947.1066;;;;
2021/10/19 00:32:06;;;;;;;4.5;2.6;;;;;;;6.6;87.9541;947.0505;;;;
2021/10/19 00:34:32;;;;;;;3.2;2.4;;;;;;;6.6;88.07813;947.014;;;;
2021/10/19 00:36:56;;;;;;;3;2.3;;;;;;;6.52;87.98242;947.0499;;;;
2021/10/19 00:39:21;;;;;;;3.1;2.4;;;;;;;6.58;87.8916;947.0613;;;;
2021/10/19 00:41:47;;;;;;;3.6;2.2;;;;;;;6.5;88.27051;947.0464;;;;
2021/10/19 00:44:13;;;;;;;3.1;2.6;;;;;;;6.52;88.05078;947.0165;;;;
2021/10/19 00:46:40;;;;;;;3.6;2.2;;;;;;;6.52;87.84473;946.9705;;;;
2021/10/19 00:49:03;;;;;;;2.6;2.3;;;;;;;6.46;88.07129;946.9745;;;;
2021/10/19 00:51:30;;;;;;;3.4;2.7;;;;;;;6.36;88.53711;946.9327;;;;
2021/10/19 00:53:55;;;;;;;3;2.5;;;;;;;6.3;89.28125;946.8239;;;;
2021/10/19 00:56:20;;;;;;;3.4;2.4;;;;;;;6.37;89.21973;946.8167;;;;
2021/10/19 00:58:45;;;;;;;4.5;2.4;;;;;;;6.35;89.2002;946.7896;;;;
2021/10/19 01:01:10;;;;;;;2.7;2;;;;;;;6.43;89.50195;946.7739;;;;
2021/10/19 01:03:36;;;;;;;4.7;2.2;;;;;;;6.59;88.45898;946.7673;;;;
2021/10/19 01:06:01;;;;;;;4.1;2.4;;;;;;;6.63;87.9707;946.7971;;;;
2021/10/19 01:08:26;;;;;;;2.9;2.2;;;;;;;6.65;87.65918;946.7567;;;;
2021/10/19 01:10:51;;;;;;;2.4;2;;;;;;;6.54;88.21289;946.6968;;;;
2021/10/19 01:13:17;;;;;;;3.1;2;;;;;;;6.64;87.84668;946.7109;;;;
2021/10/19 01:15:45;;;;;;;3.8;2.2;;;;;;;6.62;87.35645;946.7126;;;;
2021/10/19 01:18:12;;;;;;;2.6;2;;;;;;;6.51;87.83203;946.7352;;;;
2021/10/19 01:20:34;;;;;;;2.8;2;;;;;;;6.29;88.71387;946.5984;;;;
2021/10/19 01:23:01;;;;;;;2.9;2.3;;;;;;;6.18;89.5625;946.66;;;;
2021/10/19 01:25:26;;;;;;;4.1;2.5;;;;;;;6.17;89.77734;946.6764;;;;
2021/10/19 01:27:53;;;;;;;3.7;2.3;;;;;;;6.26;89.43066;946.5575;;;;
2021/10/19 01:30:18;;;;;;;2.9;2.4;;;;;;;6.39;88.89551;946.6166;;;;
2021/10/19 01:32:44;;;;;;;3.4;2.1;;;;;;;6.55;87.875;946.5634;;;;
2021/10/19 01:35:09;;;;;;;4;2.7;;;;;;;6.58;87.33887;946.5503;;;;
2021/10/19 01:38:21;;;;;;;4.4;2.4;;;;;;;6.59;87.06738;946.5388;;;;
2021/10/19 01:40:47;;;;;;;2.7;2;;;;;;;6.52;87.09863;946.4775;;;;
2021/10/19 01:43:12;;;;;;;2.7;2.1;;;;;;;6.46;87.69824;946.5416;;;;
2021/10/19 01:45:37;;;;;;;3.3;2.3;;;;;;;6.48;87.58887;946.4506;;;;
2021/10/19 01:48:02;;;;;;;3.4;2.1;;;;;;;6.45;87.93359;946.4838;;;;
2021/10/19 01:50:27;;;;;;;3.3;2.2;;;;;;;6.5;87.7168;946.503;;;;
2021/10/19 01:52:57;;;;;;;2.9;2;;;;;;;6.4;87.98145;946.4752;;;;
2021/10/19 01:55:23;;;;;;;2.8;1.9;;;;;;;6.31;88.61621;946.4322;;;;
2021/10/19 01:58:03;;;;;;;2.6;2.2;;;;;;;6.24;89.60742;946.4185;;;;
2021/10/19 02:00:28;;;;;;;1.9;1.8;;;;;;;6.41;88.94238;946.4207;;;;
2021/10/19 02:02:53;;;;;;;2.4;1.9;;;;;;;6.42;88.43555;946.4128;;;;
2021/10/19 02:05:20;;;;;;;3.2;2.1;;;;;;;6.42;88.45801;946.3408;;;;
2021/10/19 02:11:35;;;;;;;2.3;1.9;;;;;;;6.36;88.62793;946.3243;;;;
2021/10/19 02:14:02;;;;;;;5.3;2.2;;;;;;;6.37;88.74219;946.278;;;;
2021/10/19 02:16:27;;;;;;;2.4;2;;;;;;;6.4;88.60059;946.339;;;;
2021/10/19 02:18:53;;;;;;;3.1;2.1;;;;;;;6.31;89.05762;946.3538;;;;
2021/10/19 02:21:18;;;;;;;2.9;1.9;;;;;;;6.37;88.41602;946.35;;;;
2021/10/19 02:23:45;;;;;;;2.8;1.9;;;;;;;6.31;88.23145;946.2797;;;;
2021/10/19 02:26:10;;;;;;;2.5;1.9;;;;;;;6.29;88.19434;946.2646;;;;
2021/10/19 02:28:58;;;;;;;2.6;2.3;;;;;;;6.09;88.62793;946.24;;;;
2021/10/19 02:31:25;;;;;;;3.2;2.2;;;;;;;6.02;89.21191;946.1968;;;;
2021/10/19 02:33:50;;;;;;;3;1.9;;;;;;;6.07;89.13281;946.199;;;;
2021/10/19 02:36:16;;;;;;;3.4;2.2;;;;;;;6.06;89.56934;946.1099;;;;
2021/10/19 02:38:41;;;;;;;2;1.8;;;;;;;6.16;89.25293;946.1225;;;;
2021/10/19 02:41:06;;;;;;;3.9;2;;;;;;;6.25;88.70703;946.1548;;;;
2021/10/19 02:43:33;;;;;;;4.4;2;;;;;;;6.28;88.09082;946.1131;;;;
2021/10/19 02:45:58;;;;;;;4.1;2.5;;;;;;;6.1;88.86719;946.0941;;;;
2021/10/19 02:48:24;;;;;;;3;2.1;;;;;;;6.04;89.47559;946.0386;;;;
2021/10/19 02:50:49;;;;;;;3.5;2.3;;;;;;;6.18;88.90625;946.0779;;;;
2021/10/19 02:53:16;;;;;;;4.8;2.3;;;;;;;6.28;88.125;946.1344;;;;
2021/10/19 02:55:41;;;;;;;2.4;1.9;;;;;;;6.18;88.60156;946.0789;;;;
2021/10/19 02:58:06;;;;;;;2.6;2;;;;;;;6.33;88.02051;946.0579;;;;
2021/10/19 03:00:31;;;;;;;3.8;2.2;;;;;;;6.36;87.34961;946.0158;;;;
2021/10/19 03:02:56;;;;;;;2.2;1.7;;;;;;;6.3;87.41797;946.087;;;;
2021/10/19 03:05:21;;;;;;;3.1;2.1;;;;;;;6.34;87.40234;946.1106;;;;
2021/10/19 03:07:46;;;;;;;2.8;1.8;;;;;;;6.34;87.18555;946.1025;;;;
2021/10/19 03:10:39;;;;;;;2.8;1.7;;;;;;;6.48;86.46875;946.0171;;;;
2021/10/19 03:13:05;;;;;;;1.6;1.4;;;;;;;6.66;85.60059;946.0739;;;;
2021/10/19 03:15:31;;;;;;;1.9;1.4;;;;;;;6.8;84.05566;946.1163;;;;
2021/10/19 03:17:57;;;;;;;2.5;1.5;;;;;;;6.89;83.08789;946.0406;;;;
2021/10/19 03:20:22;;;;;;;1.9;1.4;;;;;;;7;82.45117;945.9986;;;;
2021/10/19 03:22:47;;;;;;;3.2;1.9;;;;;;;6.93;83.08398;946.0151;;;;
2021/10/19 03:25:14;;;;;;;1.9;1.7;;;;;;;6.98;82.42676;946.127;;;;
2021/10/19 03:27:40;;;;;;;1.9;1.6;;;;;;;6.94;82.71191;946.0093;;;;
2021/10/19 03:30:38;;;;;;;3.3;1.5;;;;;;;6.93;82.61816;946.0237;;;;
2021/10/19 03:33:04;;;;;;;3.2;2;;;;;;;6.5;84.67578;946.1478;;;;
2021/10/19 03:35:30;;;;;;;4.1;2.7;;;;;;;6.14;86.36719;946.1013;;;;
2021/10/19 03:37:55;;;;;;;4.1;2.8;;;;;;;5.94;87.55664;946.0385;;;;
2021/10/19 03:40:20;;;;;;;3.4;2.3;;;;;;;5.91;88.19531;946.0516;;;;
2021/10/19 03:42:48;;;;;;;3.4;2.4;;;;;;;6.03;87.71094;946.0983;;;;
2021/10/19 03:45:11;;;;;;;3.4;2.2;;;;;;;6.32;85.75781;946.1422;;;;
2021/10/19 03:47:37;;;;;;;4.4;2.7;;;;;;;6.16;86.16602;946.1451;;;;
2021/10/19 03:50:02;;;;;;;5.6;2.6;;;;;;;5.95;87.40039;946.0911;;;;
2021/10/19 03:52:27;;;;;;;4.9;3.1;;;;;;;5.94;87.56836;946.0147;;;;
2021/10/19 03:54:52;;;;;;;5.2;2.9;;;;;;;5.85;88.03516;946.1453;;;;
2021/10/19 03:57:17;;;;;;;6.1;2.7;;;;;;;5.85;88.04688;946.1514;;;;
2021/10/19 03:59:42;;;;;;;4.4;2.7;;;;;;;5.72;88.46094;946.1747;;;;
2021/10/19 04:05:52;;;;;;;3.4;2.5;;;;;;;5.59;89.50684;946.2505;;;;
2021/10/19 04:08:17;;;;;;;3.7;2.4;;;;;;;5.57;89.70508;946.2391;;;;
2021/10/19 04:10:43;;;;;;;4.8;2.3;;;;;;;5.68;89.25293;946.2488;;;;
2021/10/19 04:13:08;;;;;;;6.2;3.1;;;;;;;5.68;89.5127;946.2503;;;;
2021/10/19 04:15:39;;;;;;;5.7;3.1;;;;;;;5.86;88.81641;946.2935;;;;
2021/10/19 04:18:05;;;;;;;4.2;2.8;;;;;;;5.83;88.3457;946.3372;;;;
2021/10/19 04:20:49;;;;;;;5.7;3;;;;;;;5.68;88.82422;946.3315;;;;
2021/10/19 04:23:16;;;;;;;3.8;3;;;;;;;5.47;90.58691;946.2706;;;;
2021/10/19 04:25:41;;;;;;;3.4;2.7;;;;;;;5.63;90.14844;946.2525;;;;
2021/10/19 04:28:08;;;;;;;4.3;2.8;;;;;;;5.65;89.40723;946.3845;;;;
2021/10/19 04:31:20;;;;;;;3.3;2.2;;;;;;;5.63;89.58203;946.4221;;;;
2021/10/19 04:33:46;;;;;;;3.1;2.2;;;;;;;5.75;89.22266;946.4261;;;;
2021/10/19 04:36:11;;;;;;;4.9;2.8;;;;;;;5.87;88.58301;946.4235;;;;
2021/10/19 04:38:38;;;;;;;3.7;2.3;;;;;;;5.98;88.30957;946.4802;;;;
2021/10/19 04:41:03;;;;;;;6.7;2.4;;;;;;;6.03;88.07422;946.5531;;;;
2021/10/19 04:43:30;;;;;;;4.9;2.3;;;;;;;6.03;88.07227;946.6234;;;;
2021/10/19 04:45:55;;;;;;;2.5;1.9;;;;;;;5.98;88.24414;946.6749;;;;
2021/10/19 04:48:22;;;;;;;2.9;2.5;;;;;;;5.85;89.16504;946.7325;;;;
2021/10/19 04:50:47;;;;;;;3.8;2.5;;;;;;;5.84;89.51465;946.7155;;;;
2021/10/19 04:53:12;;;;;;;6.1;2.6;;;;;;;5.98;89.125;946.7137;;;;
2021/10/19 04:56:20;;;;;;;4;2.7;;;;;;;6.03;88.73926;946.719;;;;
2021/10/19 04:58:45;;;;;;;3.7;2.6;;;;;;;6.14;88.13965;946.8633;;;;
2021/10/19 05:01:45;;;;;;;4.7;2.8;;;;;;;6.3;87.67773;946.8867;;;;
2021/10/19 05:04:15;;;;;;;6;3.7;;;;;;;6.16;87.98535;946.853;;;;
2021/10/19 05:06:36;;;;;;;8.7;4.1;;;;;;;6.12;88.2041;946.7692;;;;
2021/10/19 05:09:02;;;;;;;6.8;3.6;;;;;;;6.15;88.3584;946.8123;;;;
2021/10/19 05:11:27;;;;;;;5.4;3.5;;;;;;;6.27;87.69336;946.8792;;;;
2021/10/19 05:13:52;;;;;;;5.1;3.3;;;;;;;6.32;87.4082;946.8389;;;;
2021/10/19 05:16:19;;;;;;;6.8;3.6;;;;;;;6.4;87.65137;946.9078;;;;
2021/10/19 05:18:45;;;;;;;7.6;3.3;;;;;;;6.54;86.95703;946.8092;;;;
2021/10/19 05:21:10;;;;;;;7.2;3.7;;;;;;;6.5;86.93652;946.8708;;;;
2021/10/19 05:23:38;;;;;;;7.1;3.3;;;;;;;6.56;86.79102;946.8945;;;;
2021/10/19 05:26:03;;;;;;;6.9;3.8;;;;;;;6.52;87.02051;946.8362;;;;
2021/10/19 05:28:31;;;;;;;5;3.1;;;;;;;6.52;87.0752;946.8462;;;;
2021/10/19 05:30:56;;;;;;;4.6;3;;;;;;;6.55;86.91309;946.8071;;;;
2021/10/19 05:33:20;;;;;;;6.1;3.3;;;;;;;6.67;86.6543;946.7905;;;;
2021/10/19 05:35:45;;;;;;;6.4;3.4;;;;;;;6.7;86.71777;946.7951;;;;
2021/10/19 05:38:10;;;;;;;19.7;9;;;;;;;6.64;86.84082;946.7871;;;;
2021/10/19 05:40:35;;;;;;;27.9;13.6;;;;;;;6.6;87.1377;946.7891;;;;
2021/10/19 05:43:00;;;;;;;17.9;10.4;;;;;;;6.74;89.01172;946.8025;;;;
2021/10/19 05:45:25;;;;;;;16.7;8.6;;;;;;;6.89;87.0957;946.6802;;;;
2021/10/19 05:51:12;;;;;;;7.6;3.5;;;;;;;6.79;86.78125;946.6788;;;;
2021/10/19 05:53:37;;;;;;;7.1;3.4;;;;;;;6.78;87.28711;946.7011;;;;
2021/10/19 05:56:03;;;;;;;5.5;3.5;;;;;;;6.79;86.91602;946.7316;;;;
2021/10/19 05:58:29;;;;;;;9.6;7.5;;;;;;;6.96;86.35059;946.7667;;;;
2021/10/19 06:00:53;;;;;;;11.9;6.5;;;;;;;6.98;86.12891;946.7731;;;;
2021/10/19 06:03:19;;;;;;;5;3.8;;;;;;;6.93;86.0752;946.7341;;;;
2021/10/19 06:05:45;;;;;;;9.6;4;;;;;;;7.02;86.00098;946.8064;;;;
2021/10/19 06:08:09;;;;;;;10.6;4.2;;;;;;;7.02;86.02344;946.7639;;;;
2021/10/19 06:10:38;;;;;;;4.9;3.4;;;;;;;6.86;86.66992;946.6816;;;;
2021/10/19 06:13:03;;;;;;;4.8;3.4;;;;;;;6.94;86.77734;946.7169;;;;
2021/10/19 06:15:29;;;;;;;7.2;3.6;;;;;;;7.09;86.47949;946.7528;;;;
2021/10/19 06:17:54;;;;;;;5.4;3.5;;;;;;;7.08;86.4209;946.7335;;;;
2021/10/19 06:20:20;;;;;;;6.4;3.6;;;;;;;7.18;86.21289;946.7061;;;;
2021/10/19 06:22:44;;;;;;;5.8;3.9;;;;;;;7.23;86.46191;946.7216;;;;
2021/10/19 06:25:11;;;;;;;5.1;3.2;;;;;;;7.28;86.08496;946.7274;;;;
2021/10/19 06:27:36;;;;;;;5.9;3.3;;;;;;;7.33;85.67676;946.7512;;;;
2021/10/19 06:30:01;;;;;;;6.1;3.6;;;;;;;7.35;85.51074;946.7431;;;;
2021/10/19 06:32:26;;;;;;;5.3;3;;;;;;;7.45;84.86328;946.6797;;;;
2021/10/19 06:34:52;;;;;;;9.1;3.4;;;;;;;7.58;83.82227;946.7271;;;;
2021/10/19 06:37:17;;;;;;;6.6;2.9;;;;;;;7.89;83.7002;946.7981;;;;
2021/10/19 06:39:42;;;;;;;5.1;2.9;;;;;;;8.05;81.56445;946.7919;;;;
2021/10/19 06:42:07;;;;;;;6.5;2.6;;;;;;;8.14;81.12695;946.798;;;;
2021/10/19 06:44:34;;;;;;;7.1;3;;;;;;;8.33;80.41309;946.7551;;;;
2021/10/19 06:46:59;;;;;;;8.9;2.9;;;;;;;8.44;79.68359;946.7868;;;;
2021/10/19 06:49:24;;;;;;;6.2;3.2;;;;;;;8.53;80.34766;946.7539;;;;
2021/10/19 06:51:49;;;;;;;6.6;2.3;;;;;;;8.52;79.84668;946.7363;;;;
2021/10/19 06:54:17;;;;;;;5.2;2.9;;;;;;;8.51;80.34473;946.6873;;;;
2021/10/19 06:56:42;;;;;;;8.7;3.1;;;;;;;8.66;80.51953;946.697;;;;
2021/10/19 06:59:07;;;;;;;6.9;3.2;;;;;;;8.88;80.18652;946.6951;;;;
2021/10/19 07:01:32;;;;;;;4.6;2.8;;;;;;;8.9;79.64355;946.6871;;;;
2021/10/19 07:03:58;;;;;;;5.5;3.1;;;;;;;9.04;79.55469;946.7335;;;;
2021/10/19 07:06:24;;;;;;;5.8;3.1;;;;;;;9.16;79.23633;946.7201;;;;
2021/10/19 07:08:49;;;;;;;4.3;2.5;;;;;;;9.11;79.05566;946.7967;;;;
2021/10/19 07:11:14;;;;;;;3.4;2.5;;;;;;;9.02;79.35938;946.8036;;;;
2021/10/19 07:13:39;;;;;;;8.5;3.7;;;;;;;9.12;79.82227;946.7366;;;;
2021/10/19 07:16:08;;;;;;;11.5;5.1;;;;;;;9.24;79.53613;946.6743;;;;
2021/10/19 07:18:33;;;;;;;10;5.4;;;;;;;9.39;78.76563;946.7505;;;;
2021/10/19 07:20:58;;;;;;;8.3;4.4;;;;;;;9.47;78.31348;946.758;;;;
2021/10/19 07:23:23;;;;;;;5;3;;;;;;;9.51;77.99121;946.7932;;;;
2021/10/19 07:25:48;;;;;;;5.8;2.7;;;;;;;9.66;76.59473;946.6815;;;;
2021/10/19 07:28:13;;;;;;;4.4;2.4;;;;;;;9.96;75.17578;946.7841;;;;
2021/10/19 07:30:39;;;;;;;5.5;2.3;;;;;;;10.14;73.94238;946.7514;;;;
2021/10/19 07:33:04;;;;;;;4.3;2;;;;;;;10.34;73.32422;946.7815;;;;
2021/10/19 07:35:29;;;;;;;5.9;3;;;;;;;10.49;72.91602;946.7488;;;;
2021/10/19 07:37:54;;;;;;;6.5;3.3;;;;;;;10.67;72.44434;946.8027;;;;
2021/10/19 07:40:20;;;;;;;8.3;3.7;;;;;;;10.77;71.70703;946.8152;;;;
2021/10/19 07:42:45;;;;;;;5.8;2.9;;;;;;;10.99;71.79004;946.7612;;;;
2021/10/19 07:45:10;;;;;;;4.3;2.5;;;;;;;11.09;70.61719;946.7335;;;;
2021/10/19 07:47:35;;;;;;;3.3;2.2;;;;;;;11.11;69.85449;946.7888;;;;
2021/10/19 07:50:00;;;;;;;8.8;2.4;;;;;;;11.19;69.76465;946.7913;;;;
2021/10/19 07:52:25;;;;;;;3.2;2.5;;;;;;;11.28;69.67578;946.8357;;;;
2021/10/19 07:54:50;;;;;;;3.6;2.2;;;;;;;11.47;68.58496;946.8717;;;;
2021/10/19 07:57:16;;;;;;;6.3;2.9;;;;;;;11.98;67.93262;946.8477;;;;
2021/10/19 07:59:41;;;;;;;6.3;2.9;;;;;;;12.16;65.9668;946.7944;;;;
2021/10/19 08:02:06;;;;;;;4.7;2.8;;;;;;;12.19;65.74121;946.8284;;;;
2021/10/19 08:04:31;;;;;;;3.7;2.8;;;;;;;12.08;67.13574;946.7429;;;;
2021/10/19 08:06:56;;;;;;;4.5;2.8;;;;;;;12.22;67.24707;946.8102;;;;
2021/10/19 08:09:22;;;;;;;5.4;1.8;;;;;;;12;64.8418;946.7523;;;;
2021/10/19 08:11:47;;;;;;;6.2;2.3;;;;;;;12.26;65.20313;946.7167;;;;
2021/10/19 08:14:13;;;;;;;7.3;2.7;;;;;;;12.66;65.69727;946.6795;;;;
2021/10/19 08:16:38;;;;;;;4.3;2;;;;;;;12.88;61.87305;946.7686;;;;
2021/10/19 08:19:05;;;;;;;3.3;1.7;;;;;;;13.08;60.11133;946.742;;;;
2021/10/19 08:21:31;;;;;;;3.5;1.7;;;;;;;13.07;60.58203;946.7339;;;;
2021/10/19 08:23:55;;;;;;;4.8;2.2;;;;;;;13.2;61.42578;946.7678;;;;
2021/10/19 08:26:21;;;;;;;7.1;2.9;;;;;;;13.35;62.38965;946.7725;;;;
2021/10/19 08:28:47;;;;;;;6.8;2.7;;;;;;;13.36;62.20703;946.8102;;;;
2021/10/19 08:31:14;;;;;;;7.1;2.3;;;;;;;13.35;62.80371;946.7861;;;;
2021/10/19 08:33:36;;;;;;;4;2.1;;;;;;;13.38;62.10645;946.7472;;;;
2021/10/19 08:36:03;;;;;;;4.7;1.8;;;;;;;13.35;61.56055;946.7676;;;;
2021/10/19 08:38:28;;;;;;;2.3;1.6;;;;;;;13.61;62.49609;946.7399;;;;
2021/10/19 08:40:58;;;;;;;3.4;1.7;;;;;;;13.79;61.93555;946.7365;;;;
2021/10/19 08:43:24;;;;;;;3.9;2.6;;;;;;;13.89;62.43262;946.7435;;;;
2021/10/19 08:45:49;;;;;;;5.5;3;;;;;;;14.11;60.72461;946.7988;;;;
2021/10/19 08:48:14;;;;;;;4.6;2.8;;;;;;;14.23;59.12988;946.7104;;;;
2021/10/19 08:50:39;;;;;;;4.6;2.1;;;;;;;14.34;57.5791;946.7467;;;;
2021/10/19 08:53:04;;;;;;;3.6;1.9;;;;;;;14.47;57.58398;946.7692;;;;
2021/10/19 08:55:30;;;;;;;2.2;1.6;;;;;;;14.51;57.39355;946.7744;;;;
2021/10/19 08:57:57;;;;;;;1.6;1.3;;;;;;;14.37;54.55371;946.7269;;;;
2021/10/19 09:00:20;;;;;;;3.3;1.7;;;;;;;14.6;55.2627;946.6869;;;;
2021/10/19 09:02:45;;;;;;;2.8;1.9;;;;;;;14.78;55.25;946.6812;;;;
2021/10/19 09:05:11;;;;;;;2.8;1.6;;;;;;;14.85;54.11816;946.7822;;;;
2021/10/19 09:07:36;;;;;;;3;1.5;;;;;;;14.83;54.03418;946.7347;;;;
2021/10/19 09:10:02;;;;;;;3.9;2;;;;;;;14.91;53.44434;946.7353;;;;
2021/10/19 09:12:27;;;;;;;1.8;1.6;;;;;;;14.83;53.58594;946.7308;;;;
2021/10/19 09:14:52;;;;;;;4.9;1.9;;;;;;;14.47;55.29199;946.6947;;;;
2021/10/19 09:17:17;;;;;;;2.6;1.8;;;;;;;14.54;54.22754;946.7249;;;;
2021/10/19 09:19:44;;;;;;;3.1;1.7;;;;;;;14.68;54.10742;946.6789;;;;
2021/10/19 09:22:09;;;;;;;2.8;1.5;;;;;;;14.67;54.93555;946.7422;;;;
2021/10/19 09:24:34;;;;;;;2.8;1.7;;;;;;;14.96;57.03809;946.7075;;;;
2021/10/19 09:27:00;;;;;;;4.2;1.9;;;;;;;15.08;54.66602;946.6692;;;;
2021/10/19 09:29:25;;;;;;;2.2;1.5;;;;;;;15.03;55.00488;946.6914;;;;
2021/10/19 09:31:50;;;;;;;3.6;1.5;;;;;;;15.11;57.57617;946.6863;;;;
2021/10/19 09:34:15;;;;;;;3.5;2;;;;;;;15.16;57.28223;946.6624;;;;
2021/10/19 09:36:41;;;;;;;2.2;1.6;;;;;;;14.94;57.30078;946.6392;;;;
2021/10/19 09:39:07;;;;;;;2;1.2;;;;;;;14.98;56.16309;946.6691;;;;
2021/10/19 09:41:31;;;;;;;2;1.6;;;;;;;14.95;58.04004;946.6914;;;;
2021/10/19 09:43:56;;;;;;;3;1.7;;;;;;;14.97;58.82617;946.6458;;;;
2021/10/19 09:46:21;;;;;;;2.6;1.4;;;;;;;15.03;58.13086;946.6425;;;;
2021/10/19 09:48:46;;;;;;;2.7;1.7;;;;;;;15.17;58.89941;946.6063;;;;
2021/10/19 09:51:13;;;;;;;5.5;1.8;;;;;;;15.25;58.86426;946.6616;;;;
2021/10/19 09:53:37;;;;;;;3.9;1.7;;;;;;;15.34;58.0459;946.6211;;;;
2021/10/19 09:56:02;;;;;;;2.7;1.3;;;;;;;15.45;58.52246;946.719;;;;
2021/10/19 09:58:29;;;;;;;3.2;1.4;;;;;;;15.42;58.42676;946.7374;;;;
2021/10/19 10:00:54;;;;;;;3;1.5;;;;;;;15.4;58.22656;946.6967;;;;
2021/10/19 10:03:19;;;;;;;4;1.6;;;;;;;15.36;57.90918;946.7431;;;;
2021/10/19 10:05:44;;;;;;;5.4;1.8;;;;;;;15.33;57.66211;946.7166;;;;
2021/10/19 10:08:10;;;;;;;3.3;1.6;;;;;;;15.4;58.86133;946.7545;;;;
2021/10/19 10:10:35;;;;;;;4.3;1.8;;;;;;;15.33;58.22754;946.7743;;;;
2021/10/19 10:13:01;;;;;;;3.6;1.8;;;;;;;15.37;58.39648;946.7552;;;;
2021/10/19 10:15:26;;;;;;;3.4;2;;;;;;;15.23;58.71191;946.7842;;;;
2021/10/19 10:17:52;;;;;;;2.8;1.8;;;;;;;14.88;57.73145;946.7751;;;;
2021/10/19 10:20:19;;;;;;;3.8;1.9;;;;;;;14.47;57.88379;946.7395;;;;
2021/10/19 10:22:44;;;;;;;5.5;1.9;;;;;;;14.75;58.37207;946.657;;;;
2021/10/19 10:25:09;;;;;;;4;2.1;;;;;;;14.79;58.19141;946.7382;;;;
2021/10/19 10:27:34;;;;;;;3.2;2;;;;;;;15;57.72266;946.6877;;;;
2021/10/19 10:29:59;;;;;;;3;1.8;;;;;;;15.07;58.95508;946.6972;;;;
2021/10/19 10:32:25;;;;;;;1.8;1.5;;;;;;;15.14;55.6543;946.6744;;;;
2021/10/19 10:34:50;;;;;;;3.5;1.9;;;;;;;15.26;55.78516;946.5991;;;;
2021/10/19 10:37:16;;;;;;;3.2;1.9;;;;;;;15.32;56.71484;946.6058;;;;
2021/10/19 10:39:42;;;;;;;4.2;2.5;;;;;;;15.57;57.07129;946.6055;;;;
2021/10/19 10:42:06;;;;;;;3.3;1.9;;;;;;;15.85;55.8125;946.4755;;;;
2021/10/19 10:44:31;;;;;;;4.5;2.2;;;;;;;15.95;55.05273;946.4042;;;;
2021/10/19 10:46:57;;;;;;;2.9;1.9;;;;;;;15.98;55.71484;946.5055;;;;
2021/10/19 10:49:22;;;;;;;5.3;2.4;;;;;;;16.06;56.5918;946.4963;;;;
2021/10/19 10:51:49;;;;;;;4.9;2.2;;;;;;;16.08;56.40918;946.4714;;;;
2021/10/19 10:54:12;;;;;;;3.6;2.4;;;;;;;15.92;57.21973;946.4515;;;;
2021/10/19 10:56:38;;;;;;;4.7;1.9;;;;;;;15.95;56.82031;946.3945;;;;
2021/10/19 10:59:03;;;;;;;6.2;2.2;;;;;;;16;56.06445;946.3119;;;;
2021/10/19 11:01:31;;;;;;;4.5;2.4;;;;;;;16.12;56.94531;946.277;;;;
2021/10/19 11:03:54;;;;;;;3.5;2.2;;;;;;;16.17;57.92285;946.2755;;;;
2021/10/19 11:06:18;;;;;;;3.7;1.9;;;;;;;16.37;57.75391;946.2227;;;;
2021/10/19 11:08:44;;;;;;;3;1.5;;;;;;;16.46;55.87988;946.1603;;;;
2021/10/19 11:11:09;;;;;;;3.1;1.5;;;;;;;16.65;56.28613;946.2054;;;;
2021/10/19 11:13:34;;;;;;;3.5;1.9;;;;;;;16.92;55.47559;946.1461;;;;
2021/10/19 11:16:03;;;;;;;4.8;2.7;;;;;;;17.12;56.42676;946.1337;;;;
2021/10/19 11:18:28;;;;;;;4.4;2.7;;;;;;;17.25;54.40332;946.0386;;;;
2021/10/19 11:20:56;;;;;;;4.8;2.7;;;;;;;17.61;50.36328;945.9978;;;;
2021/10/19 11:23:21;;;;;;;5.2;2.6;;;;;;;18.01;49.76953;946.0261;;;;
2021/10/19 11:25:46;;;;;;;2.6;1.8;;;;;;;18.74;49.2002;945.9579;;;;
2021/10/19 11:28:11;;;;;;;1.3;1.2;;;;;;;18.79;45.78516;945.9188;;;;
2021/10/19 11:30:38;;;;;;;2.6;1.5;;;;;;;18.31;45.76953;945.8851;;;;
2021/10/19 11:33:03;;;;;;;2.1;1.5;;;;;;;18.73;46.15234;945.8862;;;;
2021/10/19 11:35:29;;;;;;;1.9;1.4;;;;;;;18.94;44.55566;945.8867;;;;
2021/10/19 11:37:54;;;;;;;3.7;1.5;;;;;;;19.04;47.24316;945.8787;;;;
2021/10/19 11:40:20;;;;;;;1.7;1.5;;;;;;;18.3;45.03711;945.8569;;;;
2021/10/19 11:42:46;;;;;;;1.8;1.2;;;;;;;18.52;44.45605;945.89;;;;
2021/10/19 11:45:10;;;;;;;1.4;1.1;;;;;;;18.91;44.41309;945.8718;;;;
2021/10/19 11:47:35;;;;;;;2.5;1.3;;;;;;;19.34;46.32031;945.8078;;;;
2021/10/19 11:50:00;;;;;;;1.3;1.1;;;;;;;19.52;43.63574;945.7363;;;;
2021/10/19 11:52:26;;;;;;;3.4;1.2;;;;;;;19.52;41.51465;945.8162;;;;
2021/10/19 11:54:51;;;;;;;1.2;1;;;;;;;18.97;41.88184;945.7573;;;;
2021/10/19 11:57:18;;;;;;;1.5;1;;;;;;;19.31;41.09863;945.6845;;;;
2021/10/19 11:59:43;;;;;;;1.5;0.9;;;;;;;19.59;41.53223;945.7122;;;;
2021/10/19 12:02:08;;;;;;;1.5;1.1;;;;;;;19.58;40.45898;945.7357;;;;
2021/10/19 12:04:33;;;;;;;1.6;1.2;;;;;;;19.63;41.6875;945.6942;;;;
2021/10/19 12:06:58;;;;;;;2.6;1.1;;;;;;;19.83;41.38086;945.5179;;;;
2021/10/19 12:09:25;;;;;;;2.2;1;;;;;;;19.92;41.65723;945.5206;;;;
2021/10/19 12:11:51;;;;;;;1.3;1.1;;;;;;;20.05;42.19434;945.5303;;;;
2021/10/19 12:14:15;;;;;;;2.8;1.2;;;;;;;20.11;41.93066;945.4841;;;;
2021/10/19 12:16:42;;;;;;;2;1.2;;;;;;;20.11;43.00586;945.4565;;;;
2021/10/19 12:19:07;;;;;;;1.4;1;;;;;;;19.85;40.83398;945.4602;;;;
2021/10/19 12:21:34;;;;;;;3.4;1.5;;;;;;;19.75;42.0957;945.3862;;;;
2021/10/19 12:23:59;;;;;;;2.5;1.4;;;;;;;19.71;42.84961;945.3472;;;;
2021/10/19 12:26:24;;;;;;;2.7;1.4;;;;;;;19.75;42.36426;945.3378;;;;
2021/10/19 12:28:49;;;;;;;2.2;1.3;;;;;;;19.74;45.37109;945.3354;;;;
2021/10/19 12:31:15;;;;;;;1.6;1.3;;;;;;;19.71;43.71191;945.3416;;;;
2021/10/19 12:33:40;;;;;;;1.9;1.3;;;;;;;19.66;43.3457;945.3027;;;;
2021/10/19 12:36:06;;;;;;;5.3;2.3;;;;;;;19.53;44.55664;945.3322;;;;
2021/10/19 12:38:31;;;;;;;3;1.5;;;;;;;19.3;44.11426;945.3423;;;;
2021/10/19 12:40:56;;;;;;;3.8;1.6;;;;;;;19.18;46.37305;945.3006;;;;
2021/10/19 12:43:21;;;;;;;1.6;1.4;;;;;;;18.93;44.81055;945.2137;;;;
2021/10/19 12:45:48;;;;;;;2.3;1.7;;;;;;;18.93;44.43848;945.1669;;;;
2021/10/19 12:48:13;;;;;;;4.4;1.6;;;;;;;19.04;45.8584;945.2257;;;;
2021/10/19 12:50:38;;;;;;;2.1;1.4;;;;;;;19.19;48.40039;945.1786;;;;
2021/10/19 12:53:03;;;;;;;2.9;1.4;;;;;;;19.28;46.18652;945.2504;;;;
2021/10/19 12:55:29;;;;;;;3;1.5;;;;;;;19.2;46.75977;945.2463;;;;
2021/10/19 12:57:54;;;;;;;2.5;1.4;;;;;;;18.98;46.22461;945.2341;;;;
2021/10/19 13:00:22;;;;;;;2.3;1.4;;;;;;;18.99;44.62988;945.2808;;;;
2021/10/19 13:02:47;;;;;;;1.6;1.1;;;;;;;18.9;44.33105;945.2722;;;;
2021/10/19 13:05:12;;;;;;;2.1;1.1;;;;;;;18.87;45.52539;945.3162;;;;
2021/10/19 13:07:37;;;;;;;1.9;1.4;;;;;;;18.79;44.56445;945.3586;;;;
2021/10/19 13:10:04;;;;;;;2.4;1.1;;;;;;;18.84;45.13965;945.347;;;;
2021/10/19 13:12:30;;;;;;;1.8;1.3;;;;;;;18.76;44.63086;945.3412;;;;
2021/10/19 13:14:55;;;;;;;1.1;1;;;;;;;18.6;45.04492;945.2754;;;;
2021/10/19 13:17:20;;;;;;;2.5;1.3;;;;;;;18.67;45.68066;945.2639;;;;
2021/10/19 13:19:47;;;;;;;3.8;1.2;;;;;;;18.74;47.52441;945.3245;;;;
2021/10/19 13:22:13;;;;;;;2;1.1;;;;;;;18.77;50.69434;945.3331;;;;
2021/10/19 13:24:38;;;;;;;3.1;1.2;;;;;;;18.83;52.13184;945.3142;;;;
2021/10/19 13:27:03;;;;;;;2.9;1.1;;;;;;;18.85;49.7832;945.293;;;;
2021/10/19 13:29:29;;;;;;;5;2.7;;;;;;;18.8;49.87012;945.353;;;;
2021/10/19 13:31:54;;;;;;;8.6;4;;;;;;;18.77;52.56543;945.2823;;;;
2021/10/19 13:34:21;;;;;;;5.2;2.4;;;;;;;18.78;50.97363;945.3016;;;;
2021/10/19 13:36:46;;;;;;;5.7;3;;;;;;;18.8;51.84863;945.2964;;;;
2021/10/19 13:39:11;;;;;;;9.4;5.2;;;;;;;18.75;53.1582;945.2792;;;;
2021/10/19 13:41:37;;;;;;;10;5;;;;;;;18.8;54.50195;945.3513;;;;
2021/10/19 13:44:03;;;;;;;10.8;4.1;;;;;;;18.78;54.01172;945.3983;;;;
2021/10/19 13:46:28;;;;;;;13.6;6.7;;;;;;;18.71;56.5498;945.3692;;;;
2021/10/19 13:48:58;;;;;;;10;4.7;;;;;;;18.68;56.59375;945.2944;;;;
2021/10/19 13:51:23;;;;;;;14.8;7;;;;;;;18.64;54.77344;945.3448;;;;
2021/10/19 13:53:48;;;;;;;5.5;1.9;;;;;;;18.35;52.19043;945.2703;;;;
2021/10/19 13:56:13;;;;;;;5.5;2.7;;;;;;;18.13;57.39355;945.3042;;;;
2021/10/19 13:58:39;;;;;;;3.7;1.8;;;;;;;17.84;55.59082;945.2175;;;;
2021/10/19 14:01:04;;;;;;;4.5;2.1;;;;;;;17.92;54.81152;945.171;;;;
2021/10/19 14:03:30;;;;;;;2.7;1.8;;;;;;;18.13;56.2666;945.2356;;;;
2021/10/19 14:05:55;;;;;;;3.2;1.4;;;;;;;18.3;55.16113;945.2054;;;;
2021/10/19 14:08:20;;;;;;;3.9;1.7;;;;;;;18.45;56.26074;945.1704;;;;
2021/10/19 14:10:45;;;;;;;2.9;1.8;;;;;;;18.48;56.2998;945.0853;;;;
2021/10/19 14:13:10;;;;;;;3.1;1.5;;;;;;;18.57;56.22949;945.1264;;;;
2021/10/19 14:15:36;;;;;;;3;1.3;;;;;;;18.62;55.95703;945.1205;;;;
2021/10/19 14:18:01;;;;;;;3;1.7;;;;;;;18.63;54.86426;945.1394;;;;
2021/10/19 14:20:26;;;;;;;2.3;1.6;;;;;;;18.54;54.60938;945.1702;;;;
2021/10/19 14:22:52;;;;;;;3.1;1.7;;;;;;;18.41;55.5459;945.0883;;;;
2021/10/19 14:25:17;;;;;;;2.7;1.5;;;;;;;18.39;55.96289;945.0764;;;;
2021/10/19 14:27:42;;;;;;;1.7;1.6;;;;;;;18.42;55.9209;945.0916;;;;
2021/10/19 14:30:08;;;;;;;1.8;1.6;;;;;;;18.44;54.95703;945.1406;;;;
2021/10/19 14:32:33;;;;;;;2.1;1.6;;;;;;;18.41;55.66211;945.0955;;;;
2021/10/19 14:35:00;;;;;;;3.2;1.7;;;;;;;18.35;56.41113;945.0606;;;;
2021/10/19 14:37:24;;;;;;;4.1;1.8;;;;;;;18.34;57.35059;945.1478;;;;
2021/10/19 14:39:50;;;;;;;27.8;15;;;;;;;18.29;58.84375;945.0901;;;;